الصفحة الرئيسية
METAR-TAF:

METAR-TAF

مطار :

Limón, كوستاريكا

دائرة عرض: 10-00N, خط طول: 083-03W, ارتفاع: 5 متر

مراقبة الطقس الحالي

تاريخ ووقت الإصدار 1ساعة و 7 دقيقة قبل الساعة 18:00UTC
ريح 3 عقدة من الشمال الغربي
درجة الحرارة 24°درجة مئوية
الرطوبة 94%
ضغط 1014 hPa
الرؤية 10 كم أو أكثر
غيوم متفرقة على ارتفاع 1000 قدم
ملبد بالغيوم على ارتفاع 9000 قدم
رذاذ

METAR: MRLM 141800Z 32003KT 9999 DZ SCT010 OVC090 24/23 A2995

زمن: 13:07 (19:07 UTC)

توقعات

تاريخ ووقت الإصدار 2ساعات و 7 دقيقة قبل الساعة 17:00UTC
التوقعات صالحة من14 الساعة 18 UTC إلى 15 الساعة 18 UTC
ريح 8 عقدة من الشمال الغربي
الرؤية 10 كم أو أكثر
غيوم متفرقة على ارتفاع 1500 قدم
مؤقت
من 14 الساعة 18 UTC إلى 14 الساعة 24 UTC
الرؤية: 5000 متر
غيوم مفككة على ارتفاع 1500 قدم
مطر
أصبح
من 15 الساعة 02 UTC إلى 15 الساعة 05 UTC
ريح 5 عقدة من الغرب/الجنوب الغربي
أصبح
من 15 الساعة 15 UTC إلى 15 الساعة 18 UTC
ريح 5 عقدة من الشرق/الشمال الشرقي

TAF: MRLM 141700Z 1418/1518 32008KT 9999 SCT015 TX29/1517Z TN22/1511Z TEMPO 1418/1424 5000 RA BKN015 BECMG 1502/1505 24005KT BECMG 1515/1518 06005KT

أرصاد الطقس والتوقعات من أكثر من 4000 مطار (تقارير الطقس للمطار METAR والتنبؤ بالطقس بالمطارTAF).

المحطات المتاحة هي النقط الصفراء والحمراء على الخريطة.

حرك المؤشر فوق النقطة لمعرفة اسم المحطة.

ثم انقر لمعرفة أرصاد وتوقعات الطقس.

لتغيير الخارطة: اضغط على الأزرار الخضراء مع رمز الصليب الأسود للتكبير. على الزر الأخضر مع شرطة للتصغير، أو على الأسهم الخضراء للخرائط المجاورة.


METAR-TAF: